sensor_id;sensor_type;location;lat;lon;timestamp;temperature;humidity
254;DHT22;590;48.772;8.846;2023-04-25T00:00:35;9.20;84.40
254;DHT22;590;48.772;8.846;2023-04-25T00:03:03;9.20;85.00
254;DHT22;590;48.772;8.846;2023-04-25T00:05:32;9.20;85.10
254;DHT22;590;48.772;8.846;2023-04-25T00:08:00;9.20;85.80
254;DHT22;590;48.772;8.846;2023-04-25T00:10:28;9.20;85.60
254;DHT22;590;48.772;8.846;2023-04-25T00:12:56;9.20;85.00
254;DHT22;590;48.772;8.846;2023-04-25T00:15:24;9.10;85.20
254;DHT22;590;48.772;8.846;2023-04-25T00:17:54;9.10;86.20
254;DHT22;590;48.772;8.846;2023-04-25T00:20:22;9.10;86.40
254;DHT22;590;48.772;8.846;2023-04-25T00:22:50;9.10;86.70
254;DHT22;590;48.772;8.846;2023-04-25T00:25:19;9.10;86.30
254;DHT22;590;48.772;8.846;2023-04-25T00:27:47;9.10;87.00
254;DHT22;590;48.772;8.846;2023-04-25T00:30:15;9.10;87.60
254;DHT22;590;48.772;8.846;2023-04-25T00:32:43;9.10;87.40
254;DHT22;590;48.772;8.846;2023-04-25T00:35:12;9.10;86.90
254;DHT22;590;48.772;8.846;2023-04-25T00:37:40;9.10;87.30
254;DHT22;590;48.772;8.846;2023-04-25T00:40:09;9.10;88.00
254;DHT22;590;48.772;8.846;2023-04-25T00:42:37;9.10;87.70
254;DHT22;590;48.772;8.846;2023-04-25T00:45:06;9.10;87.60
254;DHT22;590;48.772;8.846;2023-04-25T00:47:36;9.10;88.10
254;DHT22;590;48.772;8.846;2023-04-25T00:50:06;9.10;88.00
254;DHT22;590;48.772;8.846;2023-04-25T00:52:36;9.10;88.20
254;DHT22;590;48.772;8.846;2023-04-25T00:55:05;9.10;88.40
254;DHT22;590;48.772;8.846;2023-04-25T00:57:34;9.10;88.20
254;DHT22;590;48.772;8.846;2023-04-25T01:00:03;9.00;88.10
254;DHT22;590;48.772;8.846;2023-04-25T01:02:33;9.00;87.80
254;DHT22;590;48.772;8.846;2023-04-25T01:05:03;9.00;88.10
254;DHT22;590;48.772;8.846;2023-04-25T01:07:31;8.90;88.00
254;DHT22;590;48.772;8.846;2023-04-25T01:10:00;8.90;88.10
254;DHT22;590;48.772;8.846;2023-04-25T01:12:29;8.90;88.00
254;DHT22;590;48.772;8.846;2023-04-25T01:14:57;8.90;88.40
254;DHT22;590;48.772;8.846;2023-04-25T01:17:25;8.90;89.40
254;DHT22;590;48.772;8.846;2023-04-25T01:19:54;8.90;88.80
254;DHT22;590;48.772;8.846;2023-04-25T01:22:23;8.90;88.40
254;DHT22;590;48.772;8.846;2023-04-25T01:24:52;8.90;88.00
254;DHT22;590;48.772;8.846;2023-04-25T01:27:20;8.90;87.90
254;DHT22;590;48.772;8.846;2023-04-25T01:29:50;8.90;87.70
254;DHT22;590;48.772;8.846;2023-04-25T01:32:18;8.90;87.10
254;DHT22;590;48.772;8.846;2023-04-25T01:34:46;8.90;87.10
254;DHT22;590;48.772;8.846;2023-04-25T01:37:14;8.90;86.40
254;DHT22;590;48.772;8.846;2023-04-25T01:39:45;8.90;86.50
254;DHT22;590;48.772;8.846;2023-04-25T01:42:13;8.90;86.40
254;DHT22;590;48.772;8.846;2023-04-25T01:44:41;8.80;85.90
254;DHT22;590;48.772;8.846;2023-04-25T01:47:09;8.80;86.30
254;DHT22;590;48.772;8.846;2023-04-25T01:49:37;8.80;87.10
254;DHT22;590;48.772;8.846;2023-04-25T01:52:05;8.70;87.20
254;DHT22;590;48.772;8.846;2023-04-25T01:54:33;8.60;87.70
254;DHT22;590;48.772;8.846;2023-04-25T01:57:02;8.60;87.70
254;DHT22;590;48.772;8.846;2023-04-25T01:59:30;8.50;87.70
254;DHT22;590;48.772;8.846;2023-04-25T02:01:58;8.50;88.10
254;DHT22;590;48.772;8.846;2023-04-25T02:04:26;8.40;89.70
254;DHT22;590;48.772;8.846;2023-04-25T02:06:54;8.40;90.60
254;DHT22;590;48.772;8.846;2023-04-25T02:09:22;8.30;90.50
254;DHT22;590;48.772;8.846;2023-04-25T02:11:50;8.30;90.70
254;DHT22;590;48.772;8.846;2023-04-25T02:14:19;8.20;91.40
254;DHT22;590;48.772;8.846;2023-04-25T02:16:47;8.20;91.80
254;DHT22;590;48.772;8.846;2023-04-25T02:19:16;8.20;92.00
254;DHT22;590;48.772;8.846;2023-04-25T02:21:43;8.10;92.60
254;DHT22;590;48.772;8.846;2023-04-25T02:24:12;8.10;92.70
254;DHT22;590;48.772;8.846;2023-04-25T02:26:40;8.10;92.80
254;DHT22;590;48.772;8.846;2023-04-25T02:29:08;8.20;94.20
254;DHT22;590;48.772;8.846;2023-04-25T02:31:38;8.20;94.70
254;DHT22;590;48.772;8.846;2023-04-25T02:34:06;8.20;94.50
254;DHT22;590;48.772;8.846;2023-04-25T02:36:34;8.20;94.60
254;DHT22;590;48.772;8.846;2023-04-25T02:39:02;8.10;94.80
254;DHT22;590;48.772;8.846;2023-04-25T02:41:30;8.10;95.60
254;DHT22;590;48.772;8.846;2023-04-25T02:43:58;8.10;96.80
254;DHT22;590;48.772;8.846;2023-04-25T02:46:26;8.20;97.30
254;DHT22;590;48.772;8.846;2023-04-25T02:49:06;8.20;97.10
254;DHT22;590;48.772;8.846;2023-04-25T02:51:34;8.20;96.70
254;DHT22;590;48.772;8.846;2023-04-25T02:54:03;8.20;96.40
254;DHT22;590;48.772;8.846;2023-04-25T02:56:30;8.10;96.90
254;DHT22;590;48.772;8.846;2023-04-25T02:58:58;8.10;97.60
254;DHT22;590;48.772;8.846;2023-04-25T03:01:26;8.00;97.90
254;DHT22;590;48.772;8.846;2023-04-25T03:03:54;8.00;99.00
254;DHT22;590;48.772;8.846;2023-04-25T03:06:24;8.00;99.40
254;DHT22;590;48.772;8.846;2023-04-25T03:08:52;8.10;99.30
254;DHT22;590;48.772;8.846;2023-04-25T03:11:20;8.10;98.90
254;DHT22;590;48.772;8.846;2023-04-25T03:13:48;8.10;98.60
254;DHT22;590;48.772;8.846;2023-04-25T03:16:16;8.10;98.70
254;DHT22;590;48.772;8.846;2023-04-25T03:18:44;8.00;98.60
254;DHT22;590;48.772;8.846;2023-04-25T03:21:12;8.00;98.60
254;DHT22;590;48.772;8.846;2023-04-25T03:23:41;8.00;98.80
254;DHT22;590;48.772;8.846;2023-04-25T03:26:09;8.00;98.60
254;DHT22;590;48.772;8.846;2023-04-25T03:28:37;7.90;99.20
254;DHT22;590;48.772;8.846;2023-04-25T03:31:06;7.90;99.40
254;DHT22;590;48.772;8.846;2023-04-25T03:33:34;7.90;99.60
254;DHT22;590;48.772;8.846;2023-04-25T03:36:02;7.90;99.50
254;DHT22;590;48.772;8.846;2023-04-25T03:38:30;7.90;99.60
254;DHT22;590;48.772;8.846;2023-04-25T03:41:00;7.90;99.90
254;DHT22;590;48.772;8.846;2023-04-25T03:43:28;7.90;99.90
254;DHT22;590;48.772;8.846;2023-04-25T03:45:56;7.90;99.90
254;DHT22;590;48.772;8.846;2023-04-25T03:48:25;7.90;99.90
254;DHT22;590;48.772;8.846;2023-04-25T03:50:53;7.90;99.90
254;DHT22;590;48.772;8.846;2023-04-25T03:53:21;7.90;99.70
254;DHT22;590;48.772;8.846;2023-04-25T03:55:49;7.90;99.00
254;DHT22;590;48.772;8.846;2023-04-25T03:58:19;7.90;99.00
254;DHT22;590;48.772;8.846;2023-04-25T04:00:47;7.80;99.30
254;DHT22;590;48.772;8.846;2023-04-25T04:03:15;7.80;99.20
254;DHT22;590;48.772;8.846;2023-04-25T04:05:43;7.80;98.90
254;DHT22;590;48.772;8.846;2023-04-25T04:08:11;7.80;98.40
254;DHT22;590;48.772;8.846;2023-04-25T04:10:39;7.80;98.30
254;DHT22;590;48.772;8.846;2023-04-25T04:13:07;7.80;98.30
254;DHT22;590;48.772;8.846;2023-04-25T04:15:37;7.70;98.30
254;DHT22;590;48.772;8.846;2023-04-25T04:18:05;7.60;98.30
254;DHT22;590;48.772;8.846;2023-04-25T04:20:33;7.50;98.90
254;DHT22;590;48.772;8.846;2023-04-25T04:23:01;7.40;99.80
254;DHT22;590;48.772;8.846;2023-04-25T04:25:29;7.40;99.90
254;DHT22;590;48.772;8.846;2023-04-25T04:28:14;7.30;99.90
254;DHT22;590;48.772;8.846;2023-04-25T04:30:44;7.30;99.90
254;DHT22;590;48.772;8.846;2023-04-25T04:33:13;7.30;99.90
254;DHT22;590;48.772;8.846;2023-04-25T04:35:41;7.30;99.90
254;DHT22;590;48.772;8.846;2023-04-25T04:38:10;7.40;99.90
254;DHT22;590;48.772;8.846;2023-04-25T04:40:38;7.40;99.90
254;DHT22;590;48.772;8.846;2023-04-25T04:43:06;7.40;99.90
254;DHT22;590;48.772;8.846;2023-04-25T04:45:35;7.40;99.90
254;DHT22;590;48.772;8.846;2023-04-25T04:48:06;7.40;99.90
254;DHT22;590;48.772;8.846;2023-04-25T04:50:35;7.40;99.90
254;DHT22;590;48.772;8.846;2023-04-25T04:53:04;7.50;99.90
254;DHT22;590;48.772;8.846;2023-04-25T04:55:32;7.50;99.90
254;DHT22;590;48.772;8.846;2023-04-25T04:57:59;7.60;99.90
254;DHT22;590;48.772;8.846;2023-04-25T05:00:27;7.60;99.90
254;DHT22;590;48.772;8.846;2023-04-25T05:02:56;7.70;99.90
254;DHT22;590;48.772;8.846;2023-04-25T05:05:26;7.80;99.90
254;DHT22;590;48.772;8.846;2023-04-25T05:07:54;7.80;99.90
254;DHT22;590;48.772;8.846;2023-04-25T05:10:22;7.90;99.90
254;DHT22;590;48.772;8.846;2023-04-25T05:12:50;8.00;99.90
254;DHT22;590;48.772;8.846;2023-04-25T05:15:18;8.00;99.90
254;DHT22;590;48.772;8.846;2023-04-25T05:17:46;8.00;99.90
254;DHT22;590;48.772;8.846;2023-04-25T05:20:14;8.00;99.90
254;DHT22;590;48.772;8.846;2023-04-25T05:22:43;8.00;99.90
254;DHT22;590;48.772;8.846;2023-04-25T05:25:11;8.00;99.90
254;DHT22;590;48.772;8.846;2023-04-25T05:27:39;8.00;99.90
254;DHT22;590;48.772;8.846;2023-04-25T05:30:08;8.00;99.90
254;DHT22;590;48.772;8.846;2023-04-25T05:32:36;8.10;99.90
254;DHT22;590;48.772;8.846;2023-04-25T05:35:05;8.10;99.90
254;DHT22;590;48.772;8.846;2023-04-25T05:37:33;8.20;99.90
254;DHT22;590;48.772;8.846;2023-04-25T05:40:04;8.20;99.90
254;DHT22;590;48.772;8.846;2023-04-25T05:42:33;8.20;99.90
254;DHT22;590;48.772;8.846;2023-04-25T05:45:01;8.20;99.90
254;DHT22;590;48.772;8.846;2023-04-25T05:47:29;8.20;99.90
254;DHT22;590;48.772;8.846;2023-04-25T05:49:57;8.20;99.90
254;DHT22;590;48.772;8.846;2023-04-25T05:52:25;8.20;99.90
254;DHT22;590;48.772;8.846;2023-04-25T05:54:53;8.20;99.90
254;DHT22;590;48.772;8.846;2023-04-25T05:57:24;8.30;99.90
254;DHT22;590;48.772;8.846;2023-04-25T05:59:52;8.40;99.90
254;DHT22;590;48.772;8.846;2023-04-25T06:02:20;8.40;99.90
254;DHT22;590;48.772;8.846;2023-04-25T06:04:49;8.40;99.90
254;DHT22;590;48.772;8.846;2023-04-25T06:07:20;8.50;99.90
254;DHT22;590;48.772;8.846;2023-04-25T06:09:48;8.50;99.90
254;DHT22;590;48.772;8.846;2023-04-25T06:12:16;8.50;99.90
254;DHT22;590;48.772;8.846;2023-04-25T06:14:45;8.60;99.90
254;DHT22;590;48.772;8.846;2023-04-25T06:17:13;8.60;99.90
254;DHT22;590;48.772;8.846;2023-04-25T06:19:41;8.60;99.90
254;DHT22;590;48.772;8.846;2023-04-25T06:22:10;8.60;99.90
254;DHT22;590;48.772;8.846;2023-04-25T06:24:38;8.60;99.90
254;DHT22;590;48.772;8.846;2023-04-25T06:27:06;8.60;99.90
254;DHT22;590;48.772;8.846;2023-04-25T06:29:34;8.60;99.90
254;DHT22;590;48.772;8.846;2023-04-25T06:32:03;8.60;99.90
254;DHT22;590;48.772;8.846;2023-04-25T06:34:31;8.60;99.90
254;DHT22;590;48.772;8.846;2023-04-25T06:36:59;8.70;99.90
254;DHT22;590;48.772;8.846;2023-04-25T06:39:27;8.80;99.90
254;DHT22;590;48.772;8.846;2023-04-25T06:41:55;8.80;99.90
254;DHT22;590;48.772;8.846;2023-04-25T06:44:23;8.80;99.90
254;DHT22;590;48.772;8.846;2023-04-25T06:46:52;8.80;99.90
254;DHT22;590;48.772;8.846;2023-04-25T06:49:22;8.80;99.90
254;DHT22;590;48.772;8.846;2023-04-25T06:51:50;8.80;99.90
254;DHT22;590;48.772;8.846;2023-04-25T06:54:18;8.80;99.90
254;DHT22;590;48.772;8.846;2023-04-25T06:56:46;8.80;99.90
254;DHT22;590;48.772;8.846;2023-04-25T06:59:13;8.70;99.90
254;DHT22;590;48.772;8.846;2023-04-25T07:01:41;8.70;99.90
254;DHT22;590;48.772;8.846;2023-04-25T07:04:09;8.70;99.90
254;DHT22;590;48.772;8.846;2023-04-25T07:06:39;8.70;99.90
254;DHT22;590;48.772;8.846;2023-04-25T07:09:09;8.70;99.90
254;DHT22;590;48.772;8.846;2023-04-25T07:11:37;8.80;99.90
254;DHT22;590;48.772;8.846;2023-04-25T07:14:05;8.80;99.90
254;DHT22;590;48.772;8.846;2023-04-25T07:16:33;8.80;99.90
254;DHT22;590;48.772;8.846;2023-04-25T07:19:01;8.80;99.90
254;DHT22;590;48.772;8.846;2023-04-25T07:21:29;8.90;99.90
254;DHT22;590;48.772;8.846;2023-04-25T07:23:59;8.90;99.90
254;DHT22;590;48.772;8.846;2023-04-25T07:26:27;8.90;99.90
254;DHT22;590;48.772;8.846;2023-04-25T07:28:55;8.90;99.90
254;DHT22;590;48.772;8.846;2023-04-25T07:31:23;9.00;99.90
254;DHT22;590;48.772;8.846;2023-04-25T07:33:51;8.90;99.90
254;DHT22;590;48.772;8.846;2023-04-25T07:36:19;8.90;99.90
254;DHT22;590;48.772;8.846;2023-04-25T07:38:48;9.00;99.90
254;DHT22;590;48.772;8.846;2023-04-25T07:41:17;8.90;99.90
254;DHT22;590;48.772;8.846;2023-04-25T07:43:45;8.90;99.90
254;DHT22;590;48.772;8.846;2023-04-25T07:46:13;8.90;99.90
254;DHT22;590;48.772;8.846;2023-04-25T07:48:41;8.80;99.90
254;DHT22;590;48.772;8.846;2023-04-25T07:51:09;8.80;99.90
254;DHT22;590;48.772;8.846;2023-04-25T07:53:37;8.80;99.90
254;DHT22;590;48.772;8.846;2023-04-25T07:56:07;8.80;99.90
254;DHT22;590;48.772;8.846;2023-04-25T07:58:37;8.80;99.90
254;DHT22;590;48.772;8.846;2023-04-25T08:01:05;8.80;99.90
254;DHT22;590;48.772;8.846;2023-04-25T08:03:33;8.90;99.90
254;DHT22;590;48.772;8.846;2023-04-25T08:06:01;9.00;99.90
254;DHT22;590;48.772;8.846;2023-04-25T08:08:33;9.00;99.90
254;DHT22;590;48.772;8.846;2023-04-25T08:11:01;9.00;99.90
254;DHT22;590;48.772;8.846;2023-04-25T08:13:29;9.10;99.90
254;DHT22;590;48.772;8.846;2023-04-25T08:15:59;9.10;99.90
254;DHT22;590;48.772;8.846;2023-04-25T08:18:27;9.10;99.90
254;DHT22;590;48.772;8.846;2023-04-25T08:20:55;9.20;99.90
254;DHT22;590;48.772;8.846;2023-04-25T08:23:23;9.20;99.90
254;DHT22;590;48.772;8.846;2023-04-25T08:25:51;9.20;99.90
254;DHT22;590;48.772;8.846;2023-04-25T08:28:19;9.30;99.90
254;DHT22;590;48.772;8.846;2023-04-25T08:30:47;9.30;99.90
254;DHT22;590;48.772;8.846;2023-04-25T08:33:16;9.30;99.90
254;DHT22;590;48.772;8.846;2023-04-25T08:35:44;9.30;99.90
254;DHT22;590;48.772;8.846;2023-04-25T08:38:12;9.30;99.90
254;DHT22;590;48.772;8.846;2023-04-25T08:40:41;9.30;99.90
254;DHT22;590;48.772;8.846;2023-04-25T08:43:09;9.30;99.90
254;DHT22;590;48.772;8.846;2023-04-25T08:45:41;9.40;99.90
254;DHT22;590;48.772;8.846;2023-04-25T08:48:11;9.40;99.90
254;DHT22;590;48.772;8.846;2023-04-25T08:50:45;9.40;99.90
254;DHT22;590;48.772;8.846;2023-04-25T08:53:13;9.40;99.90
254;DHT22;590;48.772;8.846;2023-04-25T08:55:46;9.30;99.90
254;DHT22;590;48.772;8.846;2023-04-25T08:58:15;9.30;99.90
254;DHT22;590;48.772;8.846;2023-04-25T09:00:45;9.20;99.90
254;DHT22;590;48.772;8.846;2023-04-25T09:03:13;9.20;99.90
254;DHT22;590;48.772;8.846;2023-04-25T09:05:44;9.20;99.90
254;DHT22;590;48.772;8.846;2023-04-25T09:08:12;9.10;99.90
254;DHT22;590;48.772;8.846;2023-04-25T09:10:40;9.00;99.90
254;DHT22;590;48.772;8.846;2023-04-25T09:13:10;9.00;99.90
254;DHT22;590;48.772;8.846;2023-04-25T09:15:47;9.00;99.90
254;DHT22;590;48.772;8.846;2023-04-25T09:18:22;9.00;99.90
254;DHT22;590;48.772;8.846;2023-04-25T09:21:04;9.00;99.90
254;DHT22;590;48.772;8.846;2023-04-25T09:23:40;9.00;99.90
254;DHT22;590;48.772;8.846;2023-04-25T09:26:08;9.00;99.90
254;DHT22;590;48.772;8.846;2023-04-25T09:28:36;9.00;99.90
254;DHT22;590;48.772;8.846;2023-04-25T09:31:05;9.00;99.90
254;DHT22;590;48.772;8.846;2023-04-25T09:33:33;9.10;99.90
254;DHT22;590;48.772;8.846;2023-04-25T09:36:06;9.10;99.90
254;DHT22;590;48.772;8.846;2023-04-25T09:38:40;9.10;99.50
254;DHT22;590;48.772;8.846;2023-04-25T09:41:09;9.20;99.40
254;DHT22;590;48.772;8.846;2023-04-25T09:43:38;9.20;99.30
254;DHT22;590;48.772;8.846;2023-04-25T09:46:09;9.20;98.40
254;DHT22;590;48.772;8.846;2023-04-25T09:48:38;9.20;97.60
254;DHT22;590;48.772;8.846;2023-04-25T09:51:12;9.20;97.30
254;DHT22;590;48.772;8.846;2023-04-25T09:53:41;9.20;97.50
254;DHT22;590;48.772;8.846;2023-04-25T09:56:11;9.20;97.90
254;DHT22;590;48.772;8.846;2023-04-25T09:58:40;9.20;97.80
254;DHT22;590;48.772;8.846;2023-04-25T10:01:09;9.20;97.80
254;DHT22;590;48.772;8.846;2023-04-25T10:03:39;9.20;98.20
254;DHT22;590;48.772;8.846;2023-04-25T10:06:13;9.20;98.30
254;DHT22;590;48.772;8.846;2023-04-25T10:08:42;9.30;98.20
254;DHT22;590;48.772;8.846;2023-04-25T10:11:11;9.30;98.60
254;DHT22;590;48.772;8.846;2023-04-25T10:13:43;9.40;98.50
254;DHT22;590;48.772;8.846;2023-04-25T10:16:12;9.50;97.80
254;DHT22;590;48.772;8.846;2023-04-25T10:18:40;9.50;97.80
254;DHT22;590;48.772;8.846;2023-04-25T10:21:10;9.60;97.90
254;DHT22;590;48.772;8.846;2023-04-25T10:23:40;9.70;97.00
254;DHT22;590;48.772;8.846;2023-04-25T10:26:08;9.70;96.30
254;DHT22;590;48.772;8.846;2023-04-25T10:28:57;9.70;96.10
254;DHT22;590;48.772;8.846;2023-04-25T10:31:25;9.70;96.10
254;DHT22;590;48.772;8.846;2023-04-25T10:33:53;9.70;97.30
254;DHT22;590;48.772;8.846;2023-04-25T10:36:23;9.70;98.20
254;DHT22;590;48.772;8.846;2023-04-25T10:38:54;9.70;98.30
254;DHT22;590;48.772;8.846;2023-04-25T10:41:22;9.60;98.20
254;DHT22;590;48.772;8.846;2023-04-25T10:43:59;9.60;97.20
254;DHT22;590;48.772;8.846;2023-04-25T10:46:28;9.60;96.70
254;DHT22;590;48.772;8.846;2023-04-25T10:48:58;9.60;97.40
254;DHT22;590;48.772;8.846;2023-04-25T10:51:29;9.70;98.10
254;DHT22;590;48.772;8.846;2023-04-25T10:54:17;9.50;96.30
254;DHT22;590;48.772;8.846;2023-04-25T10:56:48;9.20;96.60
254;DHT22;590;48.772;8.846;2023-04-25T10:59:19;9.10;96.60
254;DHT22;590;48.772;8.846;2023-04-25T11:01:51;8.80;96.70
254;DHT22;590;48.772;8.846;2023-04-25T11:04:20;8.60;98.40
254;DHT22;590;48.772;8.846;2023-04-25T11:07:02;8.60;99.90
254;DHT22;590;48.772;8.846;2023-04-25T11:09:34;8.60;99.90
254;DHT22;590;48.772;8.846;2023-04-25T11:12:03;8.60;99.90
254;DHT22;590;48.772;8.846;2023-04-25T11:14:31;8.60;99.90
254;DHT22;590;48.772;8.846;2023-04-25T11:17:00;8.70;99.90
254;DHT22;590;48.772;8.846;2023-04-25T11:19:29;8.80;99.90
254;DHT22;590;48.772;8.846;2023-04-25T11:22:00;8.90;99.90
254;DHT22;590;48.772;8.846;2023-04-25T11:24:28;9.00;99.90
254;DHT22;590;48.772;8.846;2023-04-25T11:26:58;9.10;99.90
254;DHT22;590;48.772;8.846;2023-04-25T11:29:26;9.20;99.30
254;DHT22;590;48.772;8.846;2023-04-25T11:31:55;9.20;97.20
254;DHT22;590;48.772;8.846;2023-04-25T11:34:25;9.20;95.70
254;DHT22;590;48.772;8.846;2023-04-25T11:36:53;9.20;95.80
254;DHT22;590;48.772;8.846;2023-04-25T11:39:24;9.20;96.60
254;DHT22;590;48.772;8.846;2023-04-25T11:41:52;9.20;97.10
254;DHT22;590;48.772;8.846;2023-04-25T11:44:21;9.20;98.00
254;DHT22;590;48.772;8.846;2023-04-25T11:46:49;9.30;98.60
254;DHT22;590;48.772;8.846;2023-04-25T11:49:18;9.40;98.60
254;DHT22;590;48.772;8.846;2023-04-25T11:51:47;9.50;98.40
254;DHT22;590;48.772;8.846;2023-04-25T11:54:15;9.60;98.40
254;DHT22;590;48.772;8.846;2023-04-25T11:56:45;9.80;98.50
254;DHT22;590;48.772;8.846;2023-04-25T11:59:14;10.00;95.60
254;DHT22;590;48.772;8.846;2023-04-25T12:01:48;10.10;92.60
254;DHT22;590;48.772;8.846;2023-04-25T12:04:18;10.20;92.60
254;DHT22;590;48.772;8.846;2023-04-25T12:06:48;10.30;92.30
254;DHT22;590;48.772;8.846;2023-04-25T12:09:18;10.40;90.70
254;DHT22;590;48.772;8.846;2023-04-25T12:11:53;10.40;91.00
254;DHT22;590;48.772;8.846;2023-04-25T12:14:22;10.50;90.50
254;DHT22;590;48.772;8.846;2023-04-25T12:16:51;10.60;90.40
254;DHT22;590;48.772;8.846;2023-04-25T12:19:20;10.70;90.60
254;DHT22;590;48.772;8.846;2023-04-25T12:21:49;10.90;90.40
254;DHT22;590;48.772;8.846;2023-04-25T12:24:26;11.00;90.20
254;DHT22;590;48.772;8.846;2023-04-25T12:27:01;11.20;87.10
254;DHT22;590;48.772;8.846;2023-04-25T12:29:31;11.40;85.30
254;DHT22;590;48.772;8.846;2023-04-25T12:32:14;11.60;83.60
254;DHT22;590;48.772;8.846;2023-04-25T12:34:42;11.80;80.50
254;DHT22;590;48.772;8.846;2023-04-25T12:37:10;12.10;78.20
254;DHT22;590;48.772;8.846;2023-04-25T12:39:38;12.30;78.30
254;DHT22;590;48.772;8.846;2023-04-25T12:42:07;12.50;73.10
254;DHT22;590;48.772;8.846;2023-04-25T12:44:51;12.60;71.40
254;DHT22;590;48.772;8.846;2023-04-25T12:47:19;12.60;70.70
254;DHT22;590;48.772;8.846;2023-04-25T12:49:47;12.70;71.10
254;DHT22;590;48.772;8.846;2023-04-25T12:52:15;12.80;69.60
254;DHT22;590;48.772;8.846;2023-04-25T12:54:43;12.80;70.70
254;DHT22;590;48.772;8.846;2023-04-25T12:57:12;12.70;69.30
254;DHT22;590;48.772;8.846;2023-04-25T12:59:40;12.50;67.70
254;DHT22;590;48.772;8.846;2023-04-25T13:02:08;12.30;69.00
254;DHT22;590;48.772;8.846;2023-04-25T13:04:36;12.30;69.30
254;DHT22;590;48.772;8.846;2023-04-25T13:07:04;12.30;72.00
254;DHT22;590;48.772;8.846;2023-04-25T13:09:32;12.30;70.50
254;DHT22;590;48.772;8.846;2023-04-25T13:12:00;12.30;69.70
254;DHT22;590;48.772;8.846;2023-04-25T13:14:30;12.20;68.10
254;DHT22;590;48.772;8.846;2023-04-25T13:16:58;12.10;68.50
254;DHT22;590;48.772;8.846;2023-04-25T13:19:26;12.20;69.80
254;DHT22;590;48.772;8.846;2023-04-25T13:21:54;12.20;69.10
254;DHT22;590;48.772;8.846;2023-04-25T13:24:22;12.30;71.50
254;DHT22;590;48.772;8.846;2023-04-25T13:26:50;12.40;70.70
254;DHT22;590;48.772;8.846;2023-04-25T13:29:18;12.60;70.30
254;DHT22;590;48.772;8.846;2023-04-25T13:31:47;12.60;67.20
254;DHT22;590;48.772;8.846;2023-04-25T13:34:15;12.70;68.20
254;DHT22;590;48.772;8.846;2023-04-25T13:36:43;12.80;68.30
254;DHT22;590;48.772;8.846;2023-04-25T13:39:12;12.90;67.80
254;DHT22;590;48.772;8.846;2023-04-25T13:41:40;13.00;68.40
254;DHT22;590;48.772;8.846;2023-04-25T13:44:08;13.20;67.80
254;DHT22;590;48.772;8.846;2023-04-25T13:46:36;13.40;65.50
254;DHT22;590;48.772;8.846;2023-04-25T13:49:09;13.30;62.10
254;DHT22;590;48.772;8.846;2023-04-25T13:51:39;13.10;62.20
254;DHT22;590;48.772;8.846;2023-04-25T13:54:07;12.90;63.30
254;DHT22;590;48.772;8.846;2023-04-25T13:56:35;12.70;63.10
254;DHT22;590;48.772;8.846;2023-04-25T13:59:03;12.60;65.90
254;DHT22;590;48.772;8.846;2023-04-25T14:01:31;12.60;66.60
254;DHT22;590;48.772;8.846;2023-04-25T14:04:01;12.50;66.80
254;DHT22;590;48.772;8.846;2023-04-25T14:06:32;12.60;68.10
254;DHT22;590;48.772;8.846;2023-04-25T14:09:00;12.80;68.90
254;DHT22;590;48.772;8.846;2023-04-25T14:11:29;12.80;64.60
254;DHT22;590;48.772;8.846;2023-04-25T14:13:57;12.80;62.30
254;DHT22;590;48.772;8.846;2023-04-25T14:16:25;12.80;64.50
254;DHT22;590;48.772;8.846;2023-04-25T14:18:53;12.90;65.50
254;DHT22;590;48.772;8.846;2023-04-25T14:21:22;13.10;63.50
254;DHT22;590;48.772;8.846;2023-04-25T14:23:51;13.30;62.00
254;DHT22;590;48.772;8.846;2023-04-25T14:26:19;13.20;57.10
254;DHT22;590;48.772;8.846;2023-04-25T14:28:47;13.20;56.00
254;DHT22;590;48.772;8.846;2023-04-25T14:31:16;13.10;54.80
254;DHT22;590;48.772;8.846;2023-04-25T14:33:44;13.00;56.50
254;DHT22;590;48.772;8.846;2023-04-25T14:36:12;13.00;57.20
254;DHT22;590;48.772;8.846;2023-04-25T14:38:41;13.00;56.70
254;DHT22;590;48.772;8.846;2023-04-25T14:41:10;13.10;56.00
254;DHT22;590;48.772;8.846;2023-04-25T14:43:38;13.10;55.50
254;DHT22;590;48.772;8.846;2023-04-25T14:46:09;13.10;54.20
254;DHT22;590;48.772;8.846;2023-04-25T14:48:37;13.00;50.70
254;DHT22;590;48.772;8.846;2023-04-25T14:51:05;13.00;52.30
254;DHT22;590;48.772;8.846;2023-04-25T14:53:34;12.90;52.30
254;DHT22;590;48.772;8.846;2023-04-25T14:56:05;12.80;46.70
254;DHT22;590;48.772;8.846;2023-04-25T14:58:35;12.70;48.50
254;DHT22;590;48.772;8.846;2023-04-25T15:01:04;12.70;50.40
254;DHT22;590;48.772;8.846;2023-04-25T15:03:33;12.60;52.50
254;DHT22;590;48.772;8.846;2023-04-25T15:06:02;12.60;52.20
254;DHT22;590;48.772;8.846;2023-04-25T15:08:30;12.50;51.80
254;DHT22;590;48.772;8.846;2023-04-25T15:11:00;12.40;50.50
254;DHT22;590;48.772;8.846;2023-04-25T15:13:29;12.40;52.70
254;DHT22;590;48.772;8.846;2023-04-25T15:15:58;12.50;53.00
254;DHT22;590;48.772;8.846;2023-04-25T15:18:26;12.50;51.70
254;DHT22;590;48.772;8.846;2023-04-25T15:20:54;12.40;49.50
254;DHT22;590;48.772;8.846;2023-04-25T15:23:22;12.20;49.10
254;DHT22;590;48.772;8.846;2023-04-25T15:25:52;12.10;51.50
254;DHT22;590;48.772;8.846;2023-04-25T15:28:20;12.00;53.80
254;DHT22;590;48.772;8.846;2023-04-25T15:30:48;11.90;55.30
254;DHT22;590;48.772;8.846;2023-04-25T15:33:18;11.90;55.10
254;DHT22;590;48.772;8.846;2023-04-25T15:35:46;12.10;56.50
254;DHT22;590;48.772;8.846;2023-04-25T15:38:14;12.20;56.50
254;DHT22;590;48.772;8.846;2023-04-25T15:40:42;12.30;56.20
254;DHT22;590;48.772;8.846;2023-04-25T15:43:10;12.30;53.00
254;DHT22;590;48.772;8.846;2023-04-25T15:45:42;12.30;50.20
254;DHT22;590;48.772;8.846;2023-04-25T15:48:11;12.30;51.60
254;DHT22;590;48.772;8.846;2023-04-25T15:50:41;12.30;50.00
254;DHT22;590;48.772;8.846;2023-04-25T15:53:09;12.20;51.20
254;DHT22;590;48.772;8.846;2023-04-25T15:55:38;12.20;52.10
254;DHT22;590;48.772;8.846;2023-04-25T15:58:06;12.20;51.60
254;DHT22;590;48.772;8.846;2023-04-25T16:00:38;12.30;51.90
254;DHT22;590;48.772;8.846;2023-04-25T16:03:06;12.30;53.00
254;DHT22;590;48.772;8.846;2023-04-25T16:05:35;12.30;53.60
254;DHT22;590;48.772;8.846;2023-04-25T16:08:05;12.30;50.60
254;DHT22;590;48.772;8.846;2023-04-25T16:10:34;12.30;51.30
254;DHT22;590;48.772;8.846;2023-04-25T16:13:02;12.30;52.00
254;DHT22;590;48.772;8.846;2023-04-25T16:15:30;12.30;49.00
254;DHT22;590;48.772;8.846;2023-04-25T16:18:01;12.20;49.50
254;DHT22;590;48.772;8.846;2023-04-25T16:20:29;12.20;48.80
254;DHT22;590;48.772;8.846;2023-04-25T16:22:57;12.10;48.80
254;DHT22;590;48.772;8.846;2023-04-25T16:25:26;12.00;48.20
254;DHT22;590;48.772;8.846;2023-04-25T16:27:54;11.90;49.00
254;DHT22;590;48.772;8.846;2023-04-25T16:30:23;11.80;50.30
254;DHT22;590;48.772;8.846;2023-04-25T16:32:50;11.80;53.00
254;DHT22;590;48.772;8.846;2023-04-25T16:35:19;11.80;54.50
254;DHT22;590;48.772;8.846;2023-04-25T16:37:47;11.70;54.00
254;DHT22;590;48.772;8.846;2023-04-25T16:40:15;11.70;53.80
254;DHT22;590;48.772;8.846;2023-04-25T16:42:44;11.70;54.80
254;DHT22;590;48.772;8.846;2023-04-25T16:45:12;11.60;56.20
254;DHT22;590;48.772;8.846;2023-04-25T16:47:43;11.60;57.50
254;DHT22;590;48.772;8.846;2023-04-25T16:50:12;11.50;58.00
254;DHT22;590;48.772;8.846;2023-04-25T16:52:41;11.50;57.80
254;DHT22;590;48.772;8.846;2023-04-25T16:55:10;11.50;59.10
254;DHT22;590;48.772;8.846;2023-04-25T16:57:38;11.40;58.30